Time;durP1;ratioP1;P1;durP2;ratioP2;P2;SDS_P1;SDS_P2;PMS_P1;PMS_P2;Temp;Humidity;BMP_temperature;BMP_pressure;BME280_temperature;BME280_humidity;BME280_pressure;Samples;Min_cycle;Max_cycle;Signal;HPM_P1;HPM_P2
2023/07/26 00:04:23;;;;;;;;;;;;;;;12.41;100.00;95174.78;10482644;28;1816;-78
2023/07/26 00:09:32;;;;;;;;;;;;;;;12.49;100.00;95178.66;10486450;28;1931;-78
2023/07/26 00:14:39;;;;;;;;;;;;;;;12.39;100.00;95184.25;10487833;28;1902;-79
2023/07/26 00:19:45;;;;;;;;;;;;;;;12.25;100.00;95194.22;10480058;28;1888;-77
2023/07/26 00:24:59;;;;;;;;;;;;;;;12.29;100.00;95201.41;10481717;28;1808;-77
2023/07/26 00:35:20;;;;;;;;;;;;;;;12.15;100.00;95200.56;10475872;28;1983;-77
2023/07/26 00:40:26;;;;;;;;;;;;;;;12.28;100.00;95210.59;10476893;28;4571;-78
2023/07/26 00:45:34;;;;;;;;;;;;;;;12.17;100.00;95207.28;10497947;28;2328;-79
2023/07/26 00:50:54;;;;;;;;;;;;;;;12.18;100.00;95210.78;10489044;28;2249;-79
2023/07/26 00:56:04;;;;;;;;;;;;;;;12.22;100.00;95217.19;10479209;28;1970;-78
2023/07/26 01:01:10;;;;;;;;;;;;;;;12.31;100.00;95218.06;10483815;28;1957;-77
2023/07/26 01:06:22;;;;;;;;;;;;;;;12.28;100.00;95221.38;10480992;28;2169;-78
2023/07/26 01:11:27;;;;;;;;;;;;;;;12.30;100.00;95229.97;10482045;28;1984;-77
2023/07/26 01:16:36;;;;;;;;;;;;;;;12.27;100.00;95230.53;10489746;28;1982;-78
2023/07/26 01:21:40;;;;;;;;;;;;;;;12.23;100.00;95236.84;10484084;28;1946;-78
2023/07/26 01:26:44;;;;;;;;;;;;;;;12.26;100.00;95234.34;10456086;28;1970;-78
2023/07/26 01:31:55;;;;;;;;;;;;;;;12.30;100.00;95245.34;10479265;28;2169;-79
2023/07/26 01:37:01;;;;;;;;;;;;;;;12.37;100.00;95246.53;10485617;28;4664;-79
2023/07/26 01:42:08;;;;;;;;;;;;;;;12.28;100.00;95251.03;10479087;28;1898;-79
2023/07/26 01:47:14;;;;;;;;;;;;;;;12.19;100.00;95244.69;10491804;28;2278;-79
2023/07/26 01:52:31;;;;;;;;;;;;;;;12.09;100.00;95244.91;10491239;28;1876;-79
2023/07/26 01:57:41;;;;;;;;;;;;;;;12.16;100.00;95254.19;10489473;28;1970;-79
2023/07/26 02:02:47;;;;;;;;;;;;;;;12.21;100.00;95255.19;10478628;28;2262;-78
2023/07/26 02:07:52;;;;;;;;;;;;;;;12.13;100.00;95260.16;10489709;28;1985;-77
2023/07/26 02:13:04;;;;;;;;;;;;;;;12.11;100.00;95258.84;10491667;28;1930;-78
2023/07/26 02:18:10;;;;;;;;;;;;;;;12.08;100.00;95267.53;10491702;28;1910;-78
2023/07/26 02:23:19;;;;;;;;;;;;;;;12.03;100.00;95278.41;10493735;28;2156;-79
2023/07/26 02:28:27;;;;;;;;;;;;;;;11.98;100.00;95281.97;10490511;28;1961;-79
2023/07/26 02:33:38;;;;;;;;;;;;;;;12.01;100.00;95288.66;10487938;28;1884;-78
2023/07/26 02:38:44;;;;;;;;;;;;;;;12.05;100.00;95297.75;10495939;28;2080;-79
2023/07/26 02:43:53;;;;;;;;;;;;;;;12.07;100.00;95301.75;10491685;28;1987;-79
2023/07/26 02:49:08;;;;;;;;;;;;;;;12.08;100.00;95299.84;10492994;28;1976;-78
2023/07/26 02:54:12;;;;;;;;;;;;;;;12.05;100.00;95306.63;10489591;28;1986;-78
2023/07/26 02:59:15;;;;;;;;;;;;;;;12.06;100.00;95312.81;10486997;28;1946;-78
2023/07/26 03:04:30;;;;;;;;;;;;;;;12.08;100.00;95313.31;10486926;28;1957;-77
2023/07/26 03:09:34;;;;;;;;;;;;;;;12.11;100.00;95326.22;10486897;28;2238;-77
2023/07/26 03:14:40;;;;;;;;;;;;;;;12.10;100.00;95327.31;10494149;28;2000;-78
2023/07/26 03:19:45;;;;;;;;;;;;;;;12.04;100.00;95331.19;10484463;28;1965;-79
2023/07/26 03:24:50;;;;;;;;;;;;;;;11.88;100.00;95331.41;10476965;28;2020;-78
2023/07/26 03:29:56;;;;;;;;;;;;;;;11.95;100.00;95332.91;10483437;28;1959;-78
2023/07/26 03:35:02;;;;;;;;;;;;;;;11.95;100.00;95347.19;10480960;28;2071;-79
2023/07/26 03:40:09;;;;;;;;;;;;;;;11.91;100.00;95343.50;10484665;28;4424;-80
2023/07/26 03:45:14;;;;;;;;;;;;;;;11.91;100.00;95348.88;10484310;28;1961;-79
2023/07/26 03:50:27;;;;;;;;;;;;;;;12.00;100.00;95346.31;10484580;28;2109;-79
2023/07/26 03:55:38;;;;;;;;;;;;;;;11.91;100.00;95356.97;10482670;28;1999;-80
2023/07/26 04:00:41;;;;;;;;;;;;;;;11.87;100.00;95367.50;10484885;28;2009;-79
2023/07/26 04:05:49;;;;;;;;;;;;;;;11.81;100.00;95367.88;10482166;28;1946;-79
2023/07/26 04:10:52;;;;;;;;;;;;;;;11.78;100.00;95385.38;10481245;28;1981;-80
2023/07/26 04:16:03;;;;;;;;;;;;;;;11.88;100.00;95384.47;10490804;28;1981;-79
2023/07/26 04:21:10;;;;;;;;;;;;;;;11.95;100.00;95378.72;10486113;28;2213;-78
2023/07/26 04:26:20;;;;;;;;;;;;;;;12.03;100.00;95386.16;10490150;28;1923;-78
2023/07/26 04:31:26;;;;;;;;;;;;;;;12.15;100.00;95383.78;10488976;28;1930;-78
2023/07/26 04:36:33;;;;;;;;;;;;;;;12.15;100.00;95384.63;10479276;28;4630;-78
2023/07/26 04:41:41;;;;;;;;;;;;;;;12.26;100.00;95389.84;10483234;28;1929;-77
2023/07/26 04:46:50;;;;;;;;;;;;;;;12.31;100.00;95390.56;10481460;28;1910;-77
2023/07/26 04:51:59;;;;;;;;;;;;;;;12.47;100.00;95396.53;10499023;28;1993;-76
2023/07/26 04:57:04;;;;;;;;;;;;;;;12.74;100.00;95403.88;10479373;28;2055;-76
2023/07/26 05:02:14;;;;;;;;;;;;;;;12.63;100.00;95413.25;10497159;28;1968;-77
2023/07/26 05:07:26;;;;;;;;;;;;;;;12.68;100.00;95416.66;10486425;28;1953;-78
2023/07/26 05:12:30;;;;;;;;;;;;;;;12.53;100.00;95418.78;10480864;28;1946;-78
2023/07/26 05:17:37;;;;;;;;;;;;;;;12.42;100.00;95420.88;10495732;28;2265;-80
2023/07/26 05:28:27;;;;;;;;;;;;;;;13.37;100.00;95430.31;10485961;28;2365;-79
2023/07/26 05:33:33;;;;;;;;;;;;;;;13.44;100.00;95433.41;10490143;28;2110;-76
2023/07/26 05:38:49;;;;;;;;;;;;;;;13.14;100.00;95452.81;10488527;28;4477;-78
2023/07/26 05:44:02;;;;;;;;;;;;;;;13.09;100.00;95455.63;10486445;28;1868;-79
2023/07/26 05:49:16;;;;;;;;;;;;;;;12.96;100.00;95454.47;10487346;28;1906;-77
2023/07/26 05:54:22;;;;;;;;;;;;;;;12.84;100.00;95459.53;10489850;28;1891;-78
2023/07/26 05:59:28;;;;;;;;;;;;;;;12.69;100.00;95464.09;10493122;28;1934;-77
2023/07/26 06:04:40;;;;;;;;;;;;;;;12.77;100.00;95459.91;10487965;28;1942;-80
2023/07/26 06:09:44;;;;;;;;;;;;;;;12.72;100.00;95470.78;10491895;28;1975;-78
2023/07/26 06:14:48;;;;;;;;;;;;;;;12.60;100.00;95481.25;10491714;28;1911;-79
2023/07/26 06:25:25;;;;;;;;;;;;;;;12.22;100.00;95492.03;10490663;28;2485;-80
2023/07/26 06:30:48;;;;;;;;;;;;;;;12.14;100.00;95496.16;10494370;28;1906;-79
2023/07/26 06:35:55;;;;;;;;;;;;;;;12.11;100.00;95501.34;10493108;28;4532;-79
2023/07/26 06:41:00;;;;;;;;;;;;;;;11.96;100.00;95504.22;10488913;28;1837;-81
2023/07/26 06:46:04;;;;;;;;;;;;;;;11.86;100.00;95502.47;10489838;28;1816;-79
2023/07/26 06:51:09;;;;;;;;;;;;;;;11.81;100.00;95519.47;10488388;28;1967;-79
2023/07/26 06:56:20;;;;;;;;;;;;;;;11.86;100.00;95518.63;10484691;28;1824;-80
2023/07/26 07:01:41;;;;;;;;;;;;;;;12.01;100.00;95520.31;10488476;28;1745;-79
2023/07/26 07:06:48;;;;;;;;;;;;;;;12.11;100.00;95520.19;10488691;28;1895;-79
2023/07/26 07:11:51;;;;;;;;;;;;;;;12.30;100.00;95531.00;10483616;28;1931;-80
2023/07/26 07:16:56;;;;;;;;;;;;;;;12.52;100.00;95538.50;10467673;28;2002;-80
2023/07/26 07:21:59;;;;;;;;;;;;;;;12.67;100.00;95541.81;10485220;28;2415;-81
2023/07/26 07:27:08;;;;;;;;;;;;;;;12.90;100.00;95540.09;10490109;28;1848;-81
2023/07/26 07:32:16;;;;;;;;;;;;;;;13.44;100.00;95532.50;10489451;28;1890;-80
2023/07/26 07:37:28;;;;;;;;;;;;;;;14.44;100.00;95535.38;10485335;28;4568;-79
2023/07/26 07:42:36;;;;;;;;;;;;;;;14.85;100.00;95521.78;10486972;28;1988;-79
2023/07/26 07:47:40;;;;;;;;;;;;;;;15.12;100.00;95516.25;10492695;28;1786;-78
2023/07/26 07:52:45;;;;;;;;;;;;;;;15.12;100.00;95524.38;10481567;28;1910;-78
2023/07/26 07:57:51;;;;;;;;;;;;;;;14.62;100.00;95525.56;10486074;28;2130;-78
2023/07/26 08:02:57;;;;;;;;;;;;;;;14.30;100.00;95530.81;10482106;28;1906;-76
2023/07/26 08:08:01;;;;;;;;;;;;;;;14.31;100.00;95531.59;10488739;28;1619;-77
2023/07/26 08:13:05;;;;;;;;;;;;;;;14.32;100.00;95535.94;10483225;28;1909;-77
2023/07/26 08:18:10;;;;;;;;;;;;;;;14.30;100.00;95530.00;10484332;28;2506;-77
2023/07/26 08:23:26;;;;;;;;;;;;;;;14.32;100.00;95535.94;10472394;28;1805;-76
2023/07/26 08:28:31;;;;;;;;;;;;;;;14.26;100.00;95539.84;10484836;28;1867;-76
2023/07/26 08:33:36;;;;;;;;;;;;;;;14.07;100.00;95540.75;10483657;28;1983;-76
2023/07/26 08:38:40;;;;;;;;;;;;;;;14.47;100.00;95538.31;10484902;28;4528;-77
2023/07/26 08:43:58;;;;;;;;;;;;;;;14.73;100.00;95537.75;10483224;28;1816;-75
2023/07/26 08:49:03;;;;;;;;;;;;;;;14.99;100.00;95536.06;10479965;28;1903;-76
2023/07/26 08:54:06;;;;;;;;;;;;;;;15.34;100.00;95534.41;10481153;28;1910;-75
2023/07/26 08:59:09;;;;;;;;;;;;;;;16.16;100.00;95527.63;10480179;28;1862;-76
2023/07/26 09:04:17;;;;;;;;;;;;;;;15.94;100.00;95520.38;10477929;28;1820;-76
2023/07/26 09:09:34;;;;;;;;;;;;;;;16.67;100.00;95512.56;10476216;28;1958;-77
2023/07/26 09:14:45;;;;;;;;;;;;;;;17.47;100.00;95504.84;10483371;28;2274;-76
2023/07/26 09:19:53;;;;;;;;;;;;;;;17.96;100.00;95504.53;10478739;28;1887;-75
2023/07/26 09:24:58;;;;;;;;;;;;;;;18.09;100.00;95500.81;10476468;28;1992;-76
2023/07/26 09:30:02;;;;;;;;;;;;;;;18.39;100.00;95506.25;10480187;28;1913;-76
2023/07/26 09:35:08;;;;;;;;;;;;;;;18.76;100.00;95510.78;10476881;28;1994;-75
2023/07/26 09:40:11;;;;;;;;;;;;;;;18.65;100.00;95501.41;10471417;28;4747;-75
2023/07/26 09:45:24;;;;;;;;;;;;;;;18.08;100.00;95501.94;10480292;28;1909;-76
2023/07/26 09:50:29;;;;;;;;;;;;;;;17.68;100.00;95499.47;10477105;28;1971;-76
2023/07/26 09:55:44;;;;;;;;;;;;;;;17.71;100.00;95493.44;10475876;28;1996;-75
2023/07/26 10:01:04;;;;;;;;;;;;;;;17.41;100.00;95494.47;10480647;28;1831;-76
2023/07/26 10:06:12;;;;;;;;;;;;;;;18.19;100.00;95475.13;10480479;28;1903;-75
2023/07/26 10:11:16;;;;;;;;;;;;;;;19.55;100.00;95459.09;10483015;28;2013;-75
2023/07/26 10:21:41;;;;;;;;;;;;;;;19.75;100.00;95452.81;10487331;28;1883;-76
2023/07/26 10:26:54;;;;;;;;;;;;;;;19.51;100.00;95450.00;10485120;28;1908;-76
2023/07/26 10:32:00;;;;;;;;;;;;;;;18.88;100.00;95452.88;10478108;28;1976;-77
2023/07/26 10:37:11;;;;;;;;;;;;;;;19.37;100.00;95442.16;10485186;28;4569;-75
2023/07/26 10:42:19;;;;;;;;;;;;;;;20.08;100.00;95438.25;10495615;28;1876;-75
2023/07/26 10:47:24;;;;;;;;;;;;;;;20.35;100.00;95428.53;10483067;28;1911;-76
2023/07/26 10:52:29;;;;;;;;;;;;;;;20.71;100.00;95431.22;10481846;28;2127;-76
2023/07/26 10:57:36;;;;;;;;;;;;;;;22.88;99.18;95422.13;10476876;28;2103;-78
2023/07/26 11:02:53;;;;;;;;;;;;;;;22.93;93.37;95421.84;10486304;28;1828;-77
2023/07/26 11:07:59;;;;;;;;;;;;;;;23.10;90.64;95417.88;10486437;28;2412;-77
2023/07/26 11:23:50;;;;;;;;;;;;;;;20.84;100.00;95410.13;10488257;28;1974;-76
2023/07/26 11:28:54;;;;;;;;;;;;;;;20.92;100.00;95402.91;10480283;28;1962;-74
2023/07/26 11:33:58;;;;;;;;;;;;;;;22.10;99.13;95393.03;10482534;28;1975;-76
2023/07/26 11:39:01;;;;;;;;;;;;;;;21.81;100.00;95397.81;10481385;28;4614;-76
2023/07/26 11:44:05;;;;;;;;;;;;;;;20.27;100.00;95430.28;10493083;28;2339;-76
2023/07/26 11:49:08;;;;;;;;;;;;;;;15.56;100.00;95541.69;10497337;28;2038;-77
2023/07/26 11:54:13;;;;;;;;;;;;;;;13.14;100.00;95576.97;10483346;28;1971;-77
2023/07/26 11:59:22;;;;;;;;;;;;;;;12.90;100.00;95594.03;10485660;28;1650;-78
2023/07/26 12:04:27;;;;;;;;;;;;;;;13.37;100.00;95603.09;10487090;28;2282;-77
2023/07/26 12:09:38;;;;;;;;;;;;;;;14.04;100.00;95606.19;10488554;28;1863;-78
2023/07/26 12:14:43;;;;;;;;;;;;;;;14.40;100.00;95602.00;10489317;28;1909;-77
2023/07/26 12:19:51;;;;;;;;;;;;;;;14.71;100.00;95602.22;10488655;28;1824;-78
2023/07/26 12:24:55;;;;;;;;;;;;;;;15.20;100.00;95597.84;10484514;28;1893;-78
2023/07/26 12:30:00;;;;;;;;;;;;;;;15.29;100.00;95594.09;10484124;28;1879;-79
2023/07/26 12:35:09;;;;;;;;;;;;;;;15.60;100.00;95604.19;10481458;28;1974;-78
2023/07/26 12:40:14;;;;;;;;;;;;;;;15.28;100.00;95597.13;10484186;28;4492;-78
2023/07/26 12:45:22;;;;;;;;;;;;;;;15.05;100.00;95590.88;10485508;28;1966;-78
2023/07/26 12:50:30;;;;;;;;;;;;;;;15.60;100.00;95596.88;10486688;28;1914;-78
2023/07/26 12:55:40;;;;;;;;;;;;;;;15.76;100.00;95589.16;10480232;28;2145;-79
2023/07/26 13:00:43;;;;;;;;;;;;;;;15.91;100.00;95585.28;10478199;28;2392;-77
2023/07/26 13:05:46;;;;;;;;;;;;;;;15.76;100.00;95577.53;10483782;28;1869;-78
2023/07/26 13:10:50;;;;;;;;;;;;;;;16.49;100.00;95563.28;10478969;28;1914;-78
2023/07/26 13:15:55;;;;;;;;;;;;;;;16.86;100.00;95552.19;10491587;28;1919;-79
2023/07/26 13:20:59;;;;;;;;;;;;;;;16.28;100.00;95561.47;10476316;28;2135;-77
2023/07/26 13:26:16;;;;;;;;;;;;;;;15.57;100.00;95556.03;10478290;28;2119;-78
2023/07/26 13:31:22;;;;;;;;;;;;;;;16.12;100.00;95564.63;10480043;28;1915;-76
2023/07/26 13:36:26;;;;;;;;;;;;;;;16.69;100.00;95553.75;10472898;28;4607;-77
2023/07/26 13:41:34;;;;;;;;;;;;;;;16.54;100.00;95554.22;10483412;28;1840;-76
2023/07/26 13:46:37;;;;;;;;;;;;;;;16.03;100.00;95558.38;10485714;28;1863;-77
2023/07/26 13:51:44;;;;;;;;;;;;;;;15.50;100.00;95561.09;10490272;28;1996;-76
2023/07/26 13:56:56;;;;;;;;;;;;;;;15.46;100.00;95585.31;10489503;28;2000;-77
2023/07/26 14:01:59;;;;;;;;;;;;;;;15.61;100.00;95586.81;10490276;28;1937;-77
2023/07/26 14:07:07;;;;;;;;;;;;;;;15.55;100.00;95577.22;10487658;28;2207;-76
2023/07/26 14:12:16;;;;;;;;;;;;;;;15.74;100.00;95596.00;10486105;28;1993;-76
2023/07/26 14:17:26;;;;;;;;;;;;;;;16.24;100.00;95599.28;10482644;28;1864;-76
2023/07/26 14:22:30;;;;;;;;;;;;;;;16.53;100.00;95593.28;10491922;28;1867;-76
2023/07/26 14:27:33;;;;;;;;;;;;;;;16.51;100.00;95598.25;10482848;28;1906;-76
2023/07/26 14:32:40;;;;;;;;;;;;;;;16.33;100.00;95589.25;10483852;28;1923;-76
2023/07/26 14:37:48;;;;;;;;;;;;;;;16.27;100.00;95609.50;10486670;28;4587;-76
2023/07/26 14:42:58;;;;;;;;;;;;;;;15.99;100.00;95614.31;10475705;28;1944;-77
2023/07/26 14:48:05;;;;;;;;;;;;;;;15.87;100.00;95623.03;10470033;28;1875;-77
2023/07/26 14:53:15;;;;;;;;;;;;;;;16.63;100.00;95620.16;10478749;28;2263;-77
2023/07/26 14:58:28;;;;;;;;;;;;;;;17.33;100.00;95617.53;10482479;28;1960;-78
2023/07/26 15:03:34;;;;;;;;;;;;;;;17.70;100.00;95622.31;10477727;28;1925;-76
2023/07/26 15:08:42;;;;;;;;;;;;;;;18.13;100.00;95607.81;10476784;28;1813;-76
2023/07/26 15:13:46;;;;;;;;;;;;;;;18.18;100.00;95606.84;10481355;28;1989;-76
2023/07/26 15:18:52;;;;;;;;;;;;;;;17.64;100.00;95607.28;10481362;28;1931;-75
2023/07/26 15:23:56;;;;;;;;;;;;;;;17.58;100.00;95610.50;10483511;28;1871;-77
2023/07/26 15:29:11;;;;;;;;;;;;;;;18.13;100.00;95609.72;10481560;28;1895;-77
2023/07/26 15:34:26;;;;;;;;;;;;;;;18.34;100.00;95603.25;10480420;28;1898;-77
2023/07/26 15:39:39;;;;;;;;;;;;;;;18.33;100.00;95607.09;10480079;28;4473;-78
2023/07/26 15:44:47;;;;;;;;;;;;;;;18.78;100.00;95601.16;10486169;28;1833;-76
2023/07/26 15:50:04;;;;;;;;;;;;;;;18.63;100.00;95599.75;10477168;28;2416;-77
2023/07/26 15:55:18;;;;;;;;;;;;;;;18.22;100.00;95607.78;10487050;28;1975;-75
2023/07/26 16:00:26;;;;;;;;;;;;;;;18.42;100.00;95614.44;10479833;28;1988;-76
2023/07/26 16:05:32;;;;;;;;;;;;;;;18.68;100.00;95611.59;10478134;28;1907;-77
2023/07/26 16:10:38;;;;;;;;;;;;;;;17.96;100.00;95622.28;10476959;28;1910;-75
2023/07/26 16:15:43;;;;;;;;;;;;;;;17.33;100.00;95617.53;10478306;28;1922;-75
2023/07/26 16:20:50;;;;;;;;;;;;;;;16.80;100.00;95627.56;10477148;28;1955;-76
2023/07/26 16:26:00;;;;;;;;;;;;;;;16.18;100.00;95636.59;10479704;28;2000;-76
2023/07/26 16:31:08;;;;;;;;;;;;;;;15.75;100.00;95649.09;10482517;28;2082;-76
2023/07/26 16:36:12;;;;;;;;;;;;;;;15.45;100.00;95632.44;10481272;28;4607;-76
2023/07/26 16:41:16;;;;;;;;;;;;;;;15.29;100.00;95655.59;10476806;28;1902;-77
2023/07/26 16:46:20;;;;;;;;;;;;;;;15.02;100.00;95654.56;10492042;28;2251;-76
2023/07/26 16:51:49;;;;;;;;;;;;;;;14.84;100.00;95663.63;10479659;28;1945;-76
2023/07/26 16:56:56;;;;;;;;;;;;;;;14.73;100.00;95668.44;10479081;28;1958;-77
2023/07/26 17:02:11;;;;;;;;;;;;;;;14.55;100.00;95680.97;10474843;28;2020;-75
2023/07/26 17:07:16;;;;;;;;;;;;;;;14.31;100.00;95701.94;10476424;28;1960;-76
2023/07/26 17:12:19;;;;;;;;;;;;;;;13.83;100.00;95712.25;10482469;28;1910;-75
2023/07/26 17:17:26;;;;;;;;;;;;;;;13.46;100.00;95714.72;10477076;28;1805;-76
2023/07/26 17:22:37;;;;;;;;;;;;;;;13.45;100.00;95715.81;10480059;28;1891;-78
2023/07/26 17:27:46;;;;;;;;;;;;;;;13.59;100.00;95721.28;10477634;28;1891;-75
2023/07/26 17:32:51;;;;;;;;;;;;;;;14.04;100.00;95710.81;10473777;28;1914;-76
2023/07/26 17:37:56;;;;;;;;;;;;;;;14.29;100.00;95712.25;10480101;28;4547;-76
2023/07/26 17:43:00;;;;;;;;;;;;;;;14.10;100.00;95709.63;10473824;28;2279;-76
2023/07/26 17:48:05;;;;;;;;;;;;;;;13.95;100.00;95716.09;10476053;28;1883;-76
2023/07/26 17:53:07;;;;;;;;;;;;;;;14.03;100.00;95712.72;10478423;28;2077;-76
2023/07/26 17:58:13;;;;;;;;;;;;;;;14.16;100.00;95716.53;10473226;28;1945;-77
2023/07/26 18:03:19;;;;;;;;;;;;;;;14.24;100.00;95723.16;10473861;28;1877;-77
2023/07/26 18:08:23;;;;;;;;;;;;;;;14.20;100.00;95712.16;10474466;28;1906;-77
2023/07/26 18:13:28;;;;;;;;;;;;;;;13.85;100.00;95721.66;10475838;28;2222;-76
2023/07/26 18:18:33;;;;;;;;;;;;;;;13.58;100.00;95726.97;10475391;28;1951;-77
2023/07/26 18:23:37;;;;;;;;;;;;;;;13.48;100.00;95744.91;10475867;28;1954;-77
2023/07/26 18:28:44;;;;;;;;;;;;;;;13.46;100.00;95751.72;10496156;28;1922;-76
2023/07/26 18:33:48;;;;;;;;;;;;;;;13.37;100.00;95775.88;10489172;28;1902;-76
2023/07/26 18:38:57;;;;;;;;;;;;;;;12.97;100.00;95777.16;10487695;28;4560;-79
2023/07/26 18:44:11;;;;;;;;;;;;;;;12.75;100.00;95791.16;10483778;28;1982;-80
2023/07/26 18:49:15;;;;;;;;;;;;;;;12.60;100.00;95792.16;10486530;28;2091;-79
2023/07/26 18:54:24;;;;;;;;;;;;;;;12.45;100.00;95809.25;10486593;28;1980;-80
2023/07/26 18:59:29;;;;;;;;;;;;;;;12.35;100.00;95798.59;10492171;28;1891;-78
2023/07/26 19:04:38;;;;;;;;;;;;;;;12.34;100.00;95796.16;10495079;28;1894;-77
2023/07/26 19:09:57;;;;;;;;;;;;;;;12.28;100.00;95802.69;10481909;28;1894;-77
2023/07/26 19:15:06;;;;;;;;;;;;;;;12.27;100.00;95801.88;10489266;28;1914;-78
2023/07/26 19:20:12;;;;;;;;;;;;;;;12.16;100.00;95792.28;10482763;28;1974;-78
2023/07/26 19:25:23;;;;;;;;;;;;;;;12.08;100.00;95792.88;10484404;28;1932;-79
2023/07/26 19:30:33;;;;;;;;;;;;;;;11.93;100.00;95795.72;10489173;28;2122;-78
2023/07/26 19:35:40;;;;;;;;;;;;;;;11.77;100.00;95798.50;10484052;28;2443;-79
2023/07/26 19:40:47;;;;;;;;;;;;;;;11.72;100.00;95790.44;10481096;28;4899;-79
2023/07/26 19:46:03;;;;;;;;;;;;;;;11.85;100.00;95797.13;10496310;28;1825;-79
2023/07/26 19:51:07;;;;;;;;;;;;;;;11.97;100.00;95794.06;10494376;28;1899;-78
2023/07/26 19:56:17;;;;;;;;;;;;;;;11.97;100.00;95786.00;10481576;28;2185;-78
2023/07/26 20:01:25;;;;;;;;;;;;;;;11.99;100.00;95786.50;10480839;28;1942;-78
2023/07/26 20:06:34;;;;;;;;;;;;;;;12.04;100.00;95789.97;10493106;28;1853;-79
2023/07/26 20:11:42;;;;;;;;;;;;;;;11.92;100.00;95794.91;10485498;28;1865;-78
2023/07/26 20:16:56;;;;;;;;;;;;;;;11.72;100.00;95803.09;10490915;28;1977;-80
2023/07/26 20:22:00;;;;;;;;;;;;;;;11.67;100.00;95808.53;10484511;28;1860;-80
2023/07/26 20:27:04;;;;;;;;;;;;;;;11.53;100.00;95808.34;10484236;28;2146;-79
2023/07/26 20:32:16;;;;;;;;;;;;;;;11.41;100.00;95813.25;10480533;28;2326;-80
2023/07/26 20:37:23;;;;;;;;;;;;;;;11.36;100.00;95806.00;10479231;28;4684;-79
2023/07/26 20:42:27;;;;;;;;;;;;;;;11.34;100.00;95822.44;10486440;28;1805;-80
2023/07/26 20:47:34;;;;;;;;;;;;;;;11.34;100.00;95817.06;10482030;28;1995;-79
2023/07/26 20:52:50;;;;;;;;;;;;;;;11.32;100.00;95824.63;10485865;28;1965;-78
2023/07/26 20:57:54;;;;;;;;;;;;;;;11.47;100.00;95821.03;10479469;28;1875;-78
2023/07/26 21:03:01;;;;;;;;;;;;;;;11.47;100.00;95814.84;10481267;28;1887;-79
2023/07/26 21:08:05;;;;;;;;;;;;;;;11.44;100.00;95804.63;10483885;28;1934;-78
2023/07/26 21:13:11;;;;;;;;;;;;;;;11.47;100.00;95812.94;10480494;28;1983;-78
2023/07/26 21:18:16;;;;;;;;;;;;;;;11.47;100.00;95806.75;10478034;28;1899;-80
2023/07/26 21:23:22;;;;;;;;;;;;;;;11.45;100.00;95798.16;10476665;28;1967;-77
2023/07/26 21:28:27;;;;;;;;;;;;;;;11.29;100.00;95792.84;10474796;28;2429;-78
2023/07/26 21:33:33;;;;;;;;;;;;;;;11.14;100.00;95795.63;10476080;28;1983;-78
2023/07/26 21:38:37;;;;;;;;;;;;;;;11.07;100.00;95795.13;10481461;28;4600;-77
2023/07/26 21:43:49;;;;;;;;;;;;;;;11.15;100.00;95802.63;10475470;28;2233;-78
2023/07/26 21:48:54;;;;;;;;;;;;;;;11.14;100.00;95800.22;10478280;28;1968;-77
2023/07/26 21:54:04;;;;;;;;;;;;;;;11.01;100.00;95802.41;10482402;28;1938;-77
2023/07/26 21:59:12;;;;;;;;;;;;;;;10.95;100.00;95808.91;10474424;28;1895;-76
2023/07/26 22:04:17;;;;;;;;;;;;;;;10.90;100.00;95800.03;10481988;28;1904;-76
2023/07/26 22:09:25;;;;;;;;;;;;;;;10.87;100.00;95800.56;10487692;28;1889;-76
2023/07/26 22:14:37;;;;;;;;;;;;;;;10.87;100.00;95800.56;10482026;28;1906;-77
2023/07/26 22:19:42;;;;;;;;;;;;;;;10.85;100.00;95792.78;10488815;28;1911;-75
2023/07/26 22:24:46;;;;;;;;;;;;;;;10.74;100.00;95792.00;10482742;28;2303;-76
2023/07/26 22:29:51;;;;;;;;;;;;;;;10.71;100.00;95784.50;10486052;28;2005;-76
2023/07/26 22:34:54;;;;;;;;;;;;;;;10.69;100.00;95785.88;10478086;28;1984;-77
2023/07/26 22:40:01;;;;;;;;;;;;;;;10.76;100.00;95784.50;10486746;28;4647;-77
2023/07/26 22:45:05;;;;;;;;;;;;;;;10.67;100.00;95775.34;10487738;28;1895;-76
2023/07/26 22:50:08;;;;;;;;;;;;;;;10.64;100.00;95775.91;10488059;28;2098;-77
2023/07/26 22:55:13;;;;;;;;;;;;;;;10.58;100.00;95771.63;10488198;28;1969;-77
2023/07/26 23:00:17;;;;;;;;;;;;;;;10.58;100.00;95766.25;10486641;28;1875;-77
2023/07/26 23:05:21;;;;;;;;;;;;;;;10.56;100.00;95760.38;10483699;28;1871;-77
2023/07/26 23:10:28;;;;;;;;;;;;;;;10.55;100.00;95767.59;10479317;28;1895;-76
2023/07/26 23:15:32;;;;;;;;;;;;;;;10.49;100.00;95762.50;10476269;28;1993;-76
2023/07/26 23:20:42;;;;;;;;;;;;;;;10.49;100.00;95757.13;10472343;28;2379;-76
2023/07/26 23:25:50;;;;;;;;;;;;;;;10.52;100.00;95753.91;10486828;28;1875;-76
2023/07/26 23:30:59;;;;;;;;;;;;;;;10.44;100.00;95759.84;10481885;28;1926;-77
2023/07/26 23:36:10;;;;;;;;;;;;;;;10.40;100.00;95756.91;10479857;28;4586;-77
2023/07/26 23:41:16;;;;;;;;;;;;;;;10.40;100.00;95742.66;10487048;28;1895;-76
2023/07/26 23:46:20;;;;;;;;;;;;;;;10.42;100.00;95735.91;10481796;28;2243;-76
2023/07/26 23:51:25;;;;;;;;;;;;;;;10.49;100.00;95741.00;10480930;28;1923;-76
2023/07/26 23:56:32;;;;;;;;;;;;;;;10.40;100.00;95729.22;10481641;28;1982;-76
